sensor_id;sensor_type;location;lat;lon;timestamp;temperature;humidity
24636;DHT22;12772;49.794;10.024;2022-12-29T00:01:25;10.70;46.40
24636;DHT22;12772;49.794;10.024;2022-12-29T00:05:26;10.50;46.90
24636;DHT22;12772;49.794;10.024;2022-12-29T00:09:29;10.70;46.10
24636;DHT22;12772;49.794;10.024;2022-12-29T00:13:30;10.60;45.90
24636;DHT22;12772;49.794;10.024;2022-12-29T00:17:50;10.50;45.70
24636;DHT22;12772;49.794;10.024;2022-12-29T00:21:52;10.60;45.80
24636;DHT22;12772;49.794;10.024;2022-12-29T00:26:16;10.90;46.10
24636;DHT22;12772;49.794;10.024;2022-12-29T00:30:36;10.70;45.90
24636;DHT22;12772;49.794;10.024;2022-12-29T00:34:56;11.00;46.00
24636;DHT22;12772;49.794;10.024;2022-12-29T00:39:13;10.70;45.60
24636;DHT22;12772;49.794;10.024;2022-12-29T00:43:33;11.00;46.20
24636;DHT22;12772;49.794;10.024;2022-12-29T00:47:53;11.10;46.10
24636;DHT22;12772;49.794;10.024;2022-12-29T00:52:00;11.10;46.10
24636;DHT22;12772;49.794;10.024;2022-12-29T00:56:03;11.00;45.90
24636;DHT22;12772;49.794;10.024;2022-12-29T01:00:05;10.90;45.80
24636;DHT22;12772;49.794;10.024;2022-12-29T01:04:08;10.90;46.00
24636;DHT22;12772;49.794;10.024;2022-12-29T01:08:10;10.70;45.80
24636;DHT22;12772;49.794;10.024;2022-12-29T01:12:12;11.00;46.20
24636;DHT22;12772;49.794;10.024;2022-12-29T01:16:15;11.10;46.60
24636;DHT22;12772;49.794;10.024;2022-12-29T01:20:18;10.70;46.20
24636;DHT22;12772;49.794;10.024;2022-12-29T01:24:20;10.70;46.10
24636;DHT22;12772;49.794;10.024;2022-12-29T01:28:23;10.80;46.20
24636;DHT22;12772;49.794;10.024;2022-12-29T01:32:25;10.90;46.30
24636;DHT22;12772;49.794;10.024;2022-12-29T01:36:27;10.80;46.20
24636;DHT22;12772;49.794;10.024;2022-12-29T01:40:29;11.00;46.40
24636;DHT22;12772;49.794;10.024;2022-12-29T01:44:51;11.30;46.60
24636;DHT22;12772;49.794;10.024;2022-12-29T01:53:07;11.10;46.20
24636;DHT22;12772;49.794;10.024;2022-12-29T01:57:19;11.40;46.50
24636;DHT22;12772;49.794;10.024;2022-12-29T02:01:22;10.90;46.10
24636;DHT22;12772;49.794;10.024;2022-12-29T02:05:35;11.20;46.60
24636;DHT22;12772;49.794;10.024;2022-12-29T02:09:37;11.40;47.20
24636;DHT22;12772;49.794;10.024;2022-12-29T02:13:39;11.00;46.70
24636;DHT22;12772;49.794;10.024;2022-12-29T02:26:49;11.50;47.40
24636;DHT22;12772;49.794;10.024;2022-12-29T02:35:37;11.60;49.40
24636;DHT22;12772;49.794;10.024;2022-12-29T02:53:04;11.60;56.60
24636;DHT22;12772;49.794;10.024;2022-12-29T03:10:48;11.30;58.90
24636;DHT22;12772;49.794;10.024;2022-12-29T03:14:59;11.50;60.10
24636;DHT22;12772;49.794;10.024;2022-12-29T03:19:25;11.20;60.30
24636;DHT22;12772;49.794;10.024;2022-12-29T03:23:28;11.20;60.70
24636;DHT22;12772;49.794;10.024;2022-12-29T03:27:41;10.90;60.90
24636;DHT22;12772;49.794;10.024;2022-12-29T03:31:44;11.10;61.30
24636;DHT22;12772;49.794;10.024;2022-12-29T03:35:47;11.10;61.60
24636;DHT22;12772;49.794;10.024;2022-12-29T03:39:51;11.10;61.80
24636;DHT22;12772;49.794;10.024;2022-12-29T03:43:53;10.80;61.70
24636;DHT22;12772;49.794;10.024;2022-12-29T03:47:55;10.80;61.80
24636;DHT22;12772;49.794;10.024;2022-12-29T03:51:57;10.80;62.00
24636;DHT22;12772;49.794;10.024;2022-12-29T03:55:59;10.80;62.20
24636;DHT22;12772;49.794;10.024;2022-12-29T04:00:03;10.80;62.20
24636;DHT22;12772;49.794;10.024;2022-12-29T04:04:05;10.70;62.30
24636;DHT22;12772;49.794;10.024;2022-12-29T04:08:07;10.80;62.20
24636;DHT22;12772;49.794;10.024;2022-12-29T04:12:09;11.30;62.70
24636;DHT22;12772;49.794;10.024;2022-12-29T04:16:11;11.00;62.40
24636;DHT22;12772;49.794;10.024;2022-12-29T04:20:13;10.90;62.20
24636;DHT22;12772;49.794;10.024;2022-12-29T04:24:33;11.30;62.50
24636;DHT22;12772;49.794;10.024;2022-12-29T04:28:36;11.40;62.40
24636;DHT22;12772;49.794;10.024;2022-12-29T04:32:38;11.50;62.20
24636;DHT22;12772;49.794;10.024;2022-12-29T04:36:40;11.50;62.00
24636;DHT22;12772;49.794;10.024;2022-12-29T04:40:43;11.50;61.70
24636;DHT22;12772;49.794;10.024;2022-12-29T04:44:45;11.60;61.50
24636;DHT22;12772;49.794;10.024;2022-12-29T04:48:47;11.60;61.10
24636;DHT22;12772;49.794;10.024;2022-12-29T04:52:49;11.60;60.80
24636;DHT22;12772;49.794;10.024;2022-12-29T04:56:51;11.70;60.60
24636;DHT22;12772;49.794;10.024;2022-12-29T05:00:53;11.40;60.00
24636;DHT22;12772;49.794;10.024;2022-12-29T05:04:55;11.60;59.50
24636;DHT22;12772;49.794;10.024;2022-12-29T05:08:57;11.70;59.30
24636;DHT22;12772;49.794;10.024;2022-12-29T05:12:59;11.50;58.60
24636;DHT22;12772;49.794;10.024;2022-12-29T05:17:01;11.80;59.00
24636;DHT22;12772;49.794;10.024;2022-12-29T05:21:03;11.70;58.90
24636;DHT22;12772;49.794;10.024;2022-12-29T05:25:05;11.60;58.80
24636;DHT22;12772;49.794;10.024;2022-12-29T05:29:07;11.50;57.90
24636;DHT22;12772;49.794;10.024;2022-12-29T05:33:09;11.80;57.40
24636;DHT22;12772;49.794;10.024;2022-12-29T05:37:12;11.70;56.90
24636;DHT22;12772;49.794;10.024;2022-12-29T05:41:14;11.60;56.10
24636;DHT22;12772;49.794;10.024;2022-12-29T05:45:16;11.90;55.90
24636;DHT22;12772;49.794;10.024;2022-12-29T05:49:19;12.10;55.70
24636;DHT22;12772;49.794;10.024;2022-12-29T05:53:21;11.70;54.70
24636;DHT22;12772;49.794;10.024;2022-12-29T05:57:23;11.90;54.90
24636;DHT22;12772;49.794;10.024;2022-12-29T06:01:25;11.80;54.30
24636;DHT22;12772;49.794;10.024;2022-12-29T06:05:27;12.00;54.00
24636;DHT22;12772;49.794;10.024;2022-12-29T06:09:29;11.80;52.90
24636;DHT22;12772;49.794;10.024;2022-12-29T06:13:31;12.10;53.00
24636;DHT22;12772;49.794;10.024;2022-12-29T06:17:33;12.10;52.90
24636;DHT22;12772;49.794;10.024;2022-12-29T06:21:35;12.10;52.70
24636;DHT22;12772;49.794;10.024;2022-12-29T06:25:38;12.10;52.30
24636;DHT22;12772;49.794;10.024;2022-12-29T06:29:40;11.70;51.60
24636;DHT22;12772;49.794;10.024;2022-12-29T06:33:43;11.80;51.80
24636;DHT22;12772;49.794;10.024;2022-12-29T06:37:45;12.10;52.00
24636;DHT22;12772;49.794;10.024;2022-12-29T06:41:47;11.80;51.60
24636;DHT22;12772;49.794;10.024;2022-12-29T06:45:49;11.90;51.80
24636;DHT22;12772;49.794;10.024;2022-12-29T06:49:51;12.10;51.90
24636;DHT22;12772;49.794;10.024;2022-12-29T06:53:53;12.20;51.60
24636;DHT22;12772;49.794;10.024;2022-12-29T06:57:57;11.80;51.20
24636;DHT22;12772;49.794;10.024;2022-12-29T07:01:59;12.30;51.60
24636;DHT22;12772;49.794;10.024;2022-12-29T07:06:02;12.00;51.50
24636;DHT22;12772;49.794;10.024;2022-12-29T07:10:05;12.20;50.90
24636;DHT22;12772;49.794;10.024;2022-12-29T07:14:07;12.40;50.80
24636;DHT22;12772;49.794;10.024;2022-12-29T07:18:09;12.20;50.70
24636;DHT22;12772;49.794;10.024;2022-12-29T07:22:11;12.40;50.90
24636;DHT22;12772;49.794;10.024;2022-12-29T07:26:14;12.40;50.70
24636;DHT22;12772;49.794;10.024;2022-12-29T07:30:18;12.50;50.90
24636;DHT22;12772;49.794;10.024;2022-12-29T07:34:20;12.50;50.60
24636;DHT22;12772;49.794;10.024;2022-12-29T07:38:22;12.50;50.30
24636;DHT22;12772;49.794;10.024;2022-12-29T07:42:25;12.50;50.00
24636;DHT22;12772;49.794;10.024;2022-12-29T07:46:27;12.50;50.00
24636;DHT22;12772;49.794;10.024;2022-12-29T07:50:29;12.10;50.10
24636;DHT22;12772;49.794;10.024;2022-12-29T07:54:31;12.10;49.50
24636;DHT22;12772;49.794;10.024;2022-12-29T07:58:33;12.50;49.80
24636;DHT22;12772;49.794;10.024;2022-12-29T08:02:35;12.20;49.60
24636;DHT22;12772;49.794;10.024;2022-12-29T08:06:37;12.50;49.90
24636;DHT22;12772;49.794;10.024;2022-12-29T08:10:39;12.10;49.40
24636;DHT22;12772;49.794;10.024;2022-12-29T08:14:41;12.60;49.90
24636;DHT22;12772;49.794;10.024;2022-12-29T08:18:44;12.60;50.10
24636;DHT22;12772;49.794;10.024;2022-12-29T08:22:46;12.60;50.10
24636;DHT22;12772;49.794;10.024;2022-12-29T08:26:48;12.30;49.60
24636;DHT22;12772;49.794;10.024;2022-12-29T08:30:50;12.30;49.60
24636;DHT22;12772;49.794;10.024;2022-12-29T08:34:52;12.70;50.70
24636;DHT22;12772;49.794;10.024;2022-12-29T08:38:54;12.50;49.70
24636;DHT22;12772;49.794;10.024;2022-12-29T08:42:56;12.70;49.90
24636;DHT22;12772;49.794;10.024;2022-12-29T08:46:58;12.80;50.00
24636;DHT22;12772;49.794;10.024;2022-12-29T08:51:00;12.80;49.90
24636;DHT22;12772;49.794;10.024;2022-12-29T08:55:02;12.80;49.90
24636;DHT22;12772;49.794;10.024;2022-12-29T08:59:04;12.80;49.90
24636;DHT22;12772;49.794;10.024;2022-12-29T09:03:06;12.90;49.90
24636;DHT22;12772;49.794;10.024;2022-12-29T09:07:08;12.90;49.70
24636;DHT22;12772;49.794;10.024;2022-12-29T09:11:20;12.90;49.90
24636;DHT22;12772;49.794;10.024;2022-12-29T09:15:23;12.90;49.70
24636;DHT22;12772;49.794;10.024;2022-12-29T09:19:25;13.00;49.60
24636;DHT22;12772;49.794;10.024;2022-12-29T09:23:27;13.00;49.60
24636;DHT22;12772;49.794;10.024;2022-12-29T09:27:29;13.00;49.40
24636;DHT22;12772;49.794;10.024;2022-12-29T09:31:31;13.10;49.00
24636;DHT22;12772;49.794;10.024;2022-12-29T09:35:33;13.10;49.10
24636;DHT22;12772;49.794;10.024;2022-12-29T09:39:35;13.20;49.10
24636;DHT22;12772;49.794;10.024;2022-12-29T09:44:01;13.20;49.20
24636;DHT22;12772;49.794;10.024;2022-12-29T09:48:14;13.20;48.90
24636;DHT22;12772;49.794;10.024;2022-12-29T09:52:23;13.20;48.70
24636;DHT22;12772;49.794;10.024;2022-12-29T09:56:30;13.30;48.90
24636;DHT22;12772;49.794;10.024;2022-12-29T10:00:52;13.30;48.50
24636;DHT22;12772;49.794;10.024;2022-12-29T10:04:55;13.40;48.30
24636;DHT22;12772;49.794;10.024;2022-12-29T10:09:37;13.40;47.90
24636;DHT22;12772;49.794;10.024;2022-12-29T10:18:38;13.50;47.70
24636;DHT22;12772;49.794;10.024;2022-12-29T10:26:57;13.50;47.70
24636;DHT22;12772;49.794;10.024;2022-12-29T10:31:01;13.50;47.70
24636;DHT22;12772;49.794;10.024;2022-12-29T10:35:18;13.50;47.70
24636;DHT22;12772;49.794;10.024;2022-12-29T10:39:46;13.60;47.80
24636;DHT22;12772;49.794;10.024;2022-12-29T10:43:51;13.70;47.90
24636;DHT22;12772;49.794;10.024;2022-12-29T10:47:56;13.70;47.90
24636;DHT22;12772;49.794;10.024;2022-12-29T10:52:02;13.80;48.10
24636;DHT22;12772;49.794;10.024;2022-12-29T10:56:14;13.90;48.20
24636;DHT22;12772;49.794;10.024;2022-12-29T11:00:20;14.10;48.30
24636;DHT22;12772;49.794;10.024;2022-12-29T11:04:33;14.20;48.50
24636;DHT22;12772;49.794;10.024;2022-12-29T11:08:41;14.30;48.40
24636;DHT22;12772;49.794;10.024;2022-12-29T11:13:00;14.40;47.50
24636;DHT22;12772;49.794;10.024;2022-12-29T11:17:03;14.50;48.00
24636;DHT22;12772;49.794;10.024;2022-12-29T11:21:23;14.50;48.10
24636;DHT22;12772;49.794;10.024;2022-12-29T11:25:26;14.50;48.80
24636;DHT22;12772;49.794;10.024;2022-12-29T11:29:38;14.50;48.80
24636;DHT22;12772;49.794;10.024;2022-12-29T11:33:40;14.50;48.80
24636;DHT22;12772;49.794;10.024;2022-12-29T11:37:42;14.60;48.90
24636;DHT22;12772;49.794;10.024;2022-12-29T11:41:51;14.60;48.30
24636;DHT22;12772;49.794;10.024;2022-12-29T11:45:54;14.60;48.80
24636;DHT22;12772;49.794;10.024;2022-12-29T11:50:00;14.60;48.90
24636;DHT22;12772;49.794;10.024;2022-12-29T11:54:04;14.60;48.90
24636;DHT22;12772;49.794;10.024;2022-12-29T11:58:11;14.60;48.20
24636;DHT22;12772;49.794;10.024;2022-12-29T12:06:23;14.60;48.30
24636;DHT22;12772;49.794;10.024;2022-12-29T12:10:33;14.70;48.20
24636;DHT22;12772;49.794;10.024;2022-12-29T12:14:50;14.80;47.20
24636;DHT22;12772;49.794;10.024;2022-12-29T12:18:56;14.80;47.00
24636;DHT22;12772;49.794;10.024;2022-12-29T12:23:12;14.90;46.50
24636;DHT22;12772;49.794;10.024;2022-12-29T12:27:24;15.00;46.00
24636;DHT22;12772;49.794;10.024;2022-12-29T12:31:53;15.20;45.50
24636;DHT22;12772;49.794;10.024;2022-12-29T12:36:28;15.30;45.20
24636;DHT22;12772;49.794;10.024;2022-12-29T12:41:11;15.40;44.20
24636;DHT22;12772;49.794;10.024;2022-12-29T12:45:39;15.40;43.70
24636;DHT22;12772;49.794;10.024;2022-12-29T12:49:51;15.40;43.30
24636;DHT22;12772;49.794;10.024;2022-12-29T12:58:32;15.50;43.10
24636;DHT22;12772;49.794;10.024;2022-12-29T13:12:00;15.80;42.40
24636;DHT22;12772;49.794;10.024;2022-12-29T13:16:10;15.80;42.10
24636;DHT22;12772;49.794;10.024;2022-12-29T13:20:36;15.70;42.10
24636;DHT22;12772;49.794;10.024;2022-12-29T13:33:23;15.40;42.20
24636;DHT22;12772;49.794;10.024;2022-12-29T13:37:30;15.30;42.40
24636;DHT22;12772;49.794;10.024;2022-12-29T13:41:41;15.10;43.00
24636;DHT22;12772;49.794;10.024;2022-12-29T13:45:45;15.00;43.50
24636;DHT22;12772;49.794;10.024;2022-12-29T13:49:52;14.90;43.90
24636;DHT22;12772;49.794;10.024;2022-12-29T13:58:54;14.70;43.30
24636;DHT22;12772;49.794;10.024;2022-12-29T14:03:24;14.60;43.20
24636;DHT22;12772;49.794;10.024;2022-12-29T14:07:37;14.50;43.00
24636;DHT22;12772;49.794;10.024;2022-12-29T14:11:40;14.40;42.60
24636;DHT22;12772;49.794;10.024;2022-12-29T14:15:44;14.40;43.20
24636;DHT22;12772;49.794;10.024;2022-12-29T14:19:51;14.30;42.70
24636;DHT22;12772;49.794;10.024;2022-12-29T14:23:54;14.20;42.60
24636;DHT22;12772;49.794;10.024;2022-12-29T14:27:56;14.20;42.70
24636;DHT22;12772;49.794;10.024;2022-12-29T14:31:58;14.20;43.00
24636;DHT22;12772;49.794;10.024;2022-12-29T14:36:25;14.20;43.00
24636;DHT22;12772;49.794;10.024;2022-12-29T14:40:28;14.20;42.90
24636;DHT22;12772;49.794;10.024;2022-12-29T14:44:30;14.20;42.60
24636;DHT22;12772;49.794;10.024;2022-12-29T14:48:41;14.20;42.60
24636;DHT22;12772;49.794;10.024;2022-12-29T14:52:55;14.10;42.80
24636;DHT22;12772;49.794;10.024;2022-12-29T14:57:02;14.10;42.80
24636;DHT22;12772;49.794;10.024;2022-12-29T15:01:37;14.00;42.80
24636;DHT22;12772;49.794;10.024;2022-12-29T15:10:08;14.00;43.60
24636;DHT22;12772;49.794;10.024;2022-12-29T15:14:31;14.00;44.10
24636;DHT22;12772;49.794;10.024;2022-12-29T15:18:33;13.90;44.90
24636;DHT22;12772;49.794;10.024;2022-12-29T15:22:43;13.80;45.60
24636;DHT22;12772;49.794;10.024;2022-12-29T15:26:47;13.70;47.50
24636;DHT22;12772;49.794;10.024;2022-12-29T15:31:03;13.60;47.80
24636;DHT22;12772;49.794;10.024;2022-12-29T15:39:30;13.20;50.80
24636;DHT22;12772;49.794;10.024;2022-12-29T15:43:45;13.10;52.10
24636;DHT22;12772;49.794;10.024;2022-12-29T15:47:53;12.90;53.00
24636;DHT22;12772;49.794;10.024;2022-12-29T15:51:57;12.80;53.40
24636;DHT22;12772;49.794;10.024;2022-12-29T15:56:08;12.60;54.00
24636;DHT22;12772;49.794;10.024;2022-12-29T16:00:33;12.50;55.00
24636;DHT22;12772;49.794;10.024;2022-12-29T16:04:38;12.60;56.00
24636;DHT22;12772;49.794;10.024;2022-12-29T16:08:40;12.40;56.40
24636;DHT22;12772;49.794;10.024;2022-12-29T16:12:42;12.30;57.40
24636;DHT22;12772;49.794;10.024;2022-12-29T16:16:46;12.20;57.60
24636;DHT22;12772;49.794;10.024;2022-12-29T16:20:49;12.00;57.60
24636;DHT22;12772;49.794;10.024;2022-12-29T16:24:55;11.70;57.00
24636;DHT22;12772;49.794;10.024;2022-12-29T16:29:01;12.00;57.60
24636;DHT22;12772;49.794;10.024;2022-12-29T16:33:05;12.00;57.80
24636;DHT22;12772;49.794;10.024;2022-12-29T16:37:30;12.00;58.00
24636;DHT22;12772;49.794;10.024;2022-12-29T16:41:33;12.00;57.80
24636;DHT22;12772;49.794;10.024;2022-12-29T16:46:26;11.60;57.60
24636;DHT22;12772;49.794;10.024;2022-12-29T16:50:29;12.00;58.30
24636;DHT22;12772;49.794;10.024;2022-12-29T16:54:34;11.50;58.60
24636;DHT22;12772;49.794;10.024;2022-12-29T16:58:38;11.40;58.60
24636;DHT22;12772;49.794;10.024;2022-12-29T17:02:41;11.60;58.70
24636;DHT22;12772;49.794;10.024;2022-12-29T17:06:45;11.80;59.00
24636;DHT22;12772;49.794;10.024;2022-12-29T17:10:51;11.70;58.90
24636;DHT22;12772;49.794;10.024;2022-12-29T17:15:26;11.70;58.90
24636;DHT22;12772;49.794;10.024;2022-12-29T17:19:32;11.80;58.90
24636;DHT22;12772;49.794;10.024;2022-12-29T17:23:34;11.50;58.60
24636;DHT22;12772;49.794;10.024;2022-12-29T17:27:41;11.60;58.80
24636;DHT22;12772;49.794;10.024;2022-12-29T17:31:44;11.60;58.80
24636;DHT22;12772;49.794;10.024;2022-12-29T17:35:46;11.60;58.80
24636;DHT22;12772;49.794;10.024;2022-12-29T17:39:49;11.60;58.80
24636;DHT22;12772;49.794;10.024;2022-12-29T17:43:51;11.50;58.70
24636;DHT22;12772;49.794;10.024;2022-12-29T17:47:53;11.40;58.50
24636;DHT22;12772;49.794;10.024;2022-12-29T17:51:56;11.20;58.30
24636;DHT22;12772;49.794;10.024;2022-12-29T17:55:58;11.50;58.60
24636;DHT22;12772;49.794;10.024;2022-12-29T18:00:00;11.40;58.50
24636;DHT22;12772;49.794;10.024;2022-12-29T18:04:03;11.40;58.50
24636;DHT22;12772;49.794;10.024;2022-12-29T18:08:07;11.50;58.60
24636;DHT22;12772;49.794;10.024;2022-12-29T18:12:28;11.40;58.60
24636;DHT22;12772;49.794;10.024;2022-12-29T18:16:31;11.40;58.50
24636;DHT22;12772;49.794;10.024;2022-12-29T18:20:33;11.30;58.40
24636;DHT22;12772;49.794;10.024;2022-12-29T18:24:35;11.30;58.40
24636;DHT22;12772;49.794;10.024;2022-12-29T18:28:37;10.90;58.00
24636;DHT22;12772;49.794;10.024;2022-12-29T18:32:40;11.10;58.20
24636;DHT22;12772;49.794;10.024;2022-12-29T18:36:42;11.00;58.10
24636;DHT22;12772;49.794;10.024;2022-12-29T18:40:44;11.10;58.20
24636;DHT22;12772;49.794;10.024;2022-12-29T18:44:46;11.00;58.10
24636;DHT22;12772;49.794;10.024;2022-12-29T18:48:48;11.60;58.90
24636;DHT22;12772;49.794;10.024;2022-12-29T18:52:50;11.30;59.20
24636;DHT22;12772;49.794;10.024;2022-12-29T18:56:52;11.20;59.90
24636;DHT22;12772;49.794;10.024;2022-12-29T19:00:55;11.00;59.30
24636;DHT22;12772;49.794;10.024;2022-12-29T19:04:57;11.20;59.60
24636;DHT22;12772;49.794;10.024;2022-12-29T19:08:59;11.20;59.80
24636;DHT22;12772;49.794;10.024;2022-12-29T19:13:01;10.70;59.50
24636;DHT22;12772;49.794;10.024;2022-12-29T19:17:03;11.20;60.30
24636;DHT22;12772;49.794;10.024;2022-12-29T19:21:06;11.20;60.50
24636;DHT22;12772;49.794;10.024;2022-12-29T19:25:09;10.90;60.30
24636;DHT22;12772;49.794;10.024;2022-12-29T19:29:13;11.30;60.80
24636;DHT22;12772;49.794;10.024;2022-12-29T19:33:16;11.30;61.10
24636;DHT22;12772;49.794;10.024;2022-12-29T19:37:18;11.10;61.20
24636;DHT22;12772;49.794;10.024;2022-12-29T19:41:20;11.10;61.40
24636;DHT22;12772;49.794;10.024;2022-12-29T19:45:22;11.30;61.70
24636;DHT22;12772;49.794;10.024;2022-12-29T19:49:24;11.40;62.00
24636;DHT22;12772;49.794;10.024;2022-12-29T19:53:26;10.90;61.90
24636;DHT22;12772;49.794;10.024;2022-12-29T19:57:29;11.30;62.10
24636;DHT22;12772;49.794;10.024;2022-12-29T20:01:31;11.40;61.90
24636;DHT22;12772;49.794;10.024;2022-12-29T20:05:34;11.20;61.50
24636;DHT22;12772;49.794;10.024;2022-12-29T20:09:36;11.40;61.60
24636;DHT22;12772;49.794;10.024;2022-12-29T20:13:39;11.40;61.40
24636;DHT22;12772;49.794;10.024;2022-12-29T20:17:41;11.50;61.30
24636;DHT22;12772;49.794;10.024;2022-12-29T20:21:43;11.50;61.00
24636;DHT22;12772;49.794;10.024;2022-12-29T20:25:49;11.30;60.70
24636;DHT22;12772;49.794;10.024;2022-12-29T20:29:54;11.20;60.60
24636;DHT22;12772;49.794;10.024;2022-12-29T20:33:56;11.40;60.70
24636;DHT22;12772;49.794;10.024;2022-12-29T20:37:58;11.50;60.80
24636;DHT22;12772;49.794;10.024;2022-12-29T20:42:00;11.20;61.20
24636;DHT22;12772;49.794;10.024;2022-12-29T20:46:02;11.00;60.80
24636;DHT22;12772;49.794;10.024;2022-12-29T20:50:04;10.90;60.90
24636;DHT22;12772;49.794;10.024;2022-12-29T20:54:07;11.30;61.20
24636;DHT22;12772;49.794;10.024;2022-12-29T20:58:09;11.30;61.40
24636;DHT22;12772;49.794;10.024;2022-12-29T21:02:19;11.20;61.40
24636;DHT22;12772;49.794;10.024;2022-12-29T21:06:22;11.20;61.50
24636;DHT22;12772;49.794;10.024;2022-12-29T21:10:24;11.10;61.50
24636;DHT22;12772;49.794;10.024;2022-12-29T21:14:26;11.00;61.40
24636;DHT22;12772;49.794;10.024;2022-12-29T21:18:28;11.10;61.60
24636;DHT22;12772;49.794;10.024;2022-12-29T21:22:30;11.10;61.60
24636;DHT22;12772;49.794;10.024;2022-12-29T21:26:32;10.70;61.20
24636;DHT22;12772;49.794;10.024;2022-12-29T21:30:35;11.20;61.60
24636;DHT22;12772;49.794;10.024;2022-12-29T21:34:37;10.80;61.40
24636;DHT22;12772;49.794;10.024;2022-12-29T21:38:40;11.10;61.70
24636;DHT22;12772;49.794;10.024;2022-12-29T21:42:42;11.20;61.80
24636;DHT22;12772;49.794;10.024;2022-12-29T21:46:45;11.20;61.90
24636;DHT22;12772;49.794;10.024;2022-12-29T21:50:51;11.10;61.90
24636;DHT22;12772;49.794;10.024;2022-12-29T21:55:10;11.00;61.80
24636;DHT22;12772;49.794;10.024;2022-12-29T21:59:15;11.10;62.00
24636;DHT22;12772;49.794;10.024;2022-12-29T22:03:37;10.90;61.90
24636;DHT22;12772;49.794;10.024;2022-12-29T22:07:57;11.00;62.10
24636;DHT22;12772;49.794;10.024;2022-12-29T22:12:16;11.00;62.20
24636;DHT22;12772;49.794;10.024;2022-12-29T22:16:36;11.00;62.20
24636;DHT22;12772;49.794;10.024;2022-12-29T22:20:38;10.70;62.10
24636;DHT22;12772;49.794;10.024;2022-12-29T22:24:40;10.90;62.40
24636;DHT22;12772;49.794;10.024;2022-12-29T22:28:43;10.50;62.10
24636;DHT22;12772;49.794;10.024;2022-12-29T22:32:47;11.10;62.60
24636;DHT22;12772;49.794;10.024;2022-12-29T22:36:49;10.90;62.30
24636;DHT22;12772;49.794;10.024;2022-12-29T22:40:57;10.80;62.20
24636;DHT22;12772;49.794;10.024;2022-12-29T22:44:59;11.00;62.30
24636;DHT22;12772;49.794;10.024;2022-12-29T22:49:01;11.00;62.20
24636;DHT22;12772;49.794;10.024;2022-12-29T22:53:03;11.00;62.20
24636;DHT22;12772;49.794;10.024;2022-12-29T22:57:05;11.00;62.20
24636;DHT22;12772;49.794;10.024;2022-12-29T23:01:08;10.90;62.20
24636;DHT22;12772;49.794;10.024;2022-12-29T23:05:10;10.70;62.00
24636;DHT22;12772;49.794;10.024;2022-12-29T23:09:18;10.80;62.10
24636;DHT22;12772;49.794;10.024;2022-12-29T23:13:20;11.10;62.20
24636;DHT22;12772;49.794;10.024;2022-12-29T23:17:24;10.90;61.90
24636;DHT22;12772;49.794;10.024;2022-12-29T23:21:26;11.10;62.10
24636;DHT22;12772;49.794;10.024;2022-12-29T23:25:28;11.00;61.80
24636;DHT22;12772;49.794;10.024;2022-12-29T23:29:30;10.50;61.50
24636;DHT22;12772;49.794;10.024;2022-12-29T23:33:32;10.60;61.60
24636;DHT22;12772;49.794;10.024;2022-12-29T23:37:34;10.50;61.50
24636;DHT22;12772;49.794;10.024;2022-12-29T23:41:36;10.60;61.80
24636;DHT22;12772;49.794;10.024;2022-12-29T23:45:38;10.80;62.20
24636;DHT22;12772;49.794;10.024;2022-12-29T23:49:40;10.80;62.30
24636;DHT22;12772;49.794;10.024;2022-12-29T23:53:43;10.50;62.10
24636;DHT22;12772;49.794;10.024;2022-12-29T23:57:45;10.30;61.90
